« Back
NWS Peachtree City, Ga » Text Product » ATL Terminal Aerodrome Forecast


Printer-friendly Version
Current Version              Previous Versions:   1  2  3  4  5  6  7  8  9  

Terminal Aerodrome Forecast

611
FTUS42 KFFC 250733 AAA
TAFATL
TAF AMD
KATL 250733Z 2508/2612 22003KT P6SM FEW250
     FM251000 16005KT P6SM SCT250
     FM251500 19006KT P6SM SCT050 BKN250
     FM260200 17004KT P6SM BKN250=

USA.gov is the U.S. government's official web portal to all federal, state and local government web resources and services.